createdAt,value
2022-12-11T00:00:16.117Z,39.83
2022-12-11T00:03:00.827Z,39.23
2022-12-11T00:05:45.118Z,38.20
2022-12-11T00:08:29.211Z,36.03
2022-12-11T00:11:00.076Z,34.27
2022-12-11T00:13:31.151Z,36.20
2022-12-11T00:16:05.334Z,35.07
2022-12-11T00:21:16.812Z,33.77
2022-12-11T00:29:22.651Z,34.13
2022-12-11T00:31:53.728Z,34.53
2022-12-11T00:34:22.689Z,37.50
2022-12-11T00:36:52.258Z,37.33
2022-12-11T00:39:23.579Z,35.40
2022-12-11T00:47:38.474Z,34.43
2022-12-11T00:50:10.525Z,35.47
2022-12-11T00:52:41.684Z,31.77
2022-12-11T00:55:14.500Z,31.43
2022-12-11T01:00:44.459Z,30.00
2022-12-11T01:03:18.183Z,25.37
2022-12-11T01:05:54.139Z,25.13
2022-12-11T01:08:27.396Z,25.80
2022-12-11T01:11:02.405Z,26.23
2022-12-11T01:13:34.311Z,26.53
2022-12-11T01:16:08.539Z,27.40
2022-12-11T01:18:51.218Z,25.53
2022-12-11T01:21:34.433Z,24.97
2022-12-11T01:24:02.952Z,27.47
2022-12-11T01:26:36.259Z,26.67
2022-12-11T01:29:06.305Z,25.40
2022-12-11T01:31:35.429Z,25.13
2022-12-11T01:34:06.961Z,24.53
2022-12-11T01:36:37.820Z,23.80
2022-12-11T01:39:22.128Z,23.13
2022-12-11T01:42:00.524Z,23.57
2022-12-11T01:48:17.485Z,22.70
2022-12-11T01:50:50.226Z,20.43
2022-12-11T01:53:24.123Z,21.87
2022-12-11T01:55:57.173Z,23.93
2022-12-11T01:58:45.903Z,26.37
2022-12-11T02:01:22.482Z,22.53
2022-12-11T02:06:42.723Z,24.97
2022-12-11T02:09:14.335Z,24.50
2022-12-11T02:11:53.351Z,23.27
2022-12-11T02:14:35.378Z,23.03
2022-12-11T02:17:12.557Z,24.53
2022-12-11T02:20:00.465Z,23.80
2022-12-11T02:22:56.276Z,23.23
2022-12-11T02:25:45.803Z,23.00
2022-12-11T02:28:41.664Z,22.13
2022-12-11T02:31:16.527Z,24.47
2022-12-11T02:33:52.213Z,23.30
2022-12-11T02:36:24.872Z,25.73
2022-12-11T02:38:55.936Z,23.83
2022-12-11T02:41:26.210Z,25.07
2022-12-11T02:43:58.563Z,27.80
2022-12-11T02:46:28.629Z,25.07
2022-12-11T02:48:57.946Z,24.73
2022-12-11T02:51:29.709Z,25.13
2022-12-11T02:54:04.636Z,26.40
2022-12-11T02:56:40.064Z,24.70
2022-12-11T02:59:15.661Z,28.17
2022-12-11T03:01:44.385Z,26.70
2022-12-11T03:04:12.963Z,26.23
2022-12-11T03:06:45.206Z,24.73
2022-12-11T03:09:16.675Z,23.57
2022-12-11T03:11:50.957Z,25.47
2022-12-11T03:14:21.107Z,24.33
2022-12-11T03:19:55.168Z,23.23
2022-12-11T03:25:26.342Z,25.83
2022-12-11T03:27:59.393Z,27.70
2022-12-11T03:30:32.376Z,26.67
2022-12-11T03:33:07.470Z,26.00
2022-12-11T03:35:39.871Z,24.17
2022-12-11T03:38:13.929Z,24.50
2022-12-11T03:40:44.974Z,25.83
2022-12-11T03:43:13.768Z,24.13
2022-12-11T03:45:44.543Z,24.50
2022-12-11T03:48:15.072Z,24.87
2022-12-11T03:50:49.499Z,24.83
2022-12-11T03:53:18.943Z,26.90
2022-12-11T03:55:51.746Z,24.87
2022-12-11T03:58:20.528Z,25.70
2022-12-11T04:06:22.018Z,27.07
2022-12-11T04:11:42.959Z,28.50
2022-12-11T04:14:31.205Z,26.27
2022-12-11T04:17:03.233Z,25.50
2022-12-11T04:22:48.761Z,23.17
2022-12-11T04:25:17.151Z,23.70
2022-12-11T04:27:51.277Z,24.37
2022-12-11T04:30:23.183Z,24.00
2022-12-11T04:32:54.589Z,23.60
2022-12-11T04:35:37.497Z,23.70
2022-12-11T04:38:21.928Z,23.60
2022-12-11T04:40:58.831Z,23.00
2022-12-11T04:43:37.264Z,23.07
2022-12-11T04:46:09.664Z,21.87
2022-12-11T04:48:45.024Z,22.80
2022-12-11T04:51:15.544Z,23.43
2022-12-11T04:53:47.317Z,23.67
2022-12-11T04:56:18.689Z,22.27
2022-12-11T04:58:54.077Z,22.67
2022-12-11T05:01:38.983Z,23.40
2022-12-11T05:04:24.617Z,23.20
2022-12-11T05:06:53.384Z,22.60
2022-12-11T05:09:26.253Z,22.50
2022-12-11T05:12:10.443Z,23.53
2022-12-11T05:14:53.568Z,21.83
2022-12-11T05:17:22.361Z,20.97
2022-12-11T05:19:55.505Z,22.03
2022-12-11T05:22:24.365Z,22.27
2022-12-11T05:24:53.894Z,20.57
2022-12-11T05:27:22.301Z,20.73
2022-12-11T05:30:03.315Z,21.23
2022-12-11T05:32:32.162Z,20.67
2022-12-11T05:35:07.663Z,20.60
2022-12-11T05:37:36.730Z,20.27
2022-12-11T05:40:07.387Z,20.13
2022-12-11T05:42:38.796Z,20.00
2022-12-11T05:45:19.406Z,19.70
2022-12-11T05:48:04.481Z,19.50
2022-12-11T05:50:48.413Z,18.67
2022-12-11T05:53:16.914Z,18.83
2022-12-11T05:55:49.258Z,19.63
2022-12-11T05:58:21.892Z,20.30
2022-12-11T06:00:51.644Z,19.37
2022-12-11T06:03:22.385Z,18.30
2022-12-11T06:05:58.520Z,18.40
2022-12-11T06:08:27.323Z,18.13
2022-12-11T06:11:02.996Z,18.47
2022-12-11T06:13:46.284Z,18.67
2022-12-11T06:16:16.062Z,18.53
2022-12-11T06:18:46.188Z,19.90
2022-12-11T06:21:31.929Z,17.63
2022-12-11T06:24:07.939Z,18.70
2022-12-11T06:26:50.779Z,17.70
2022-12-11T06:29:19.281Z,18.07
2022-12-11T06:34:31.076Z,17.53
2022-12-11T06:37:14.743Z,19.17
2022-12-11T06:39:57.176Z,17.47
2022-12-11T06:42:25.567Z,18.07
2022-12-11T06:44:59.881Z,18.47
2022-12-11T06:47:44.098Z,18.23
2022-12-11T06:50:13.095Z,17.07
2022-12-11T06:52:42.869Z,17.83
2022-12-11T06:55:11.655Z,18.07
2022-12-11T06:57:41.019Z,19.17
2022-12-11T07:02:58.377Z,17.70
2022-12-11T07:05:41.046Z,17.97
2022-12-11T07:08:19.484Z,17.20
2022-12-11T07:10:53.261Z,18.20
2022-12-11T07:13:27.800Z,19.73
2022-12-11T07:16:02.187Z,19.17
2022-12-11T07:18:38.844Z,17.87
2022-12-11T07:21:12.317Z,18.10
2022-12-11T07:23:42.384Z,18.30
2022-12-11T07:26:12.878Z,18.00
2022-12-11T07:31:28.211Z,18.53
2022-12-11T07:37:02.249Z,17.73
2022-12-11T07:39:30.660Z,18.43
2022-12-11T07:42:13.409Z,20.00
2022-12-11T07:44:50.161Z,19.07
2022-12-11T07:47:18.624Z,18.73
2022-12-11T07:49:47.025Z,17.80
2022-12-11T07:52:16.916Z,18.03
2022-12-11T07:54:45.302Z,18.83
2022-12-11T08:09:55.402Z,21.00
2022-12-11T08:12:23.864Z,20.00
2022-12-11T08:14:52.459Z,18.30
2022-12-11T08:17:24.552Z,18.53
2022-12-11T08:20:08.439Z,17.97
2022-12-11T08:22:36.970Z,18.43
2022-12-11T08:25:08.677Z,18.40
2022-12-11T08:27:37.406Z,20.17
2022-12-11T08:30:07.138Z,20.87
2022-12-11T08:32:36.002Z,20.33
2022-12-11T08:35:05.362Z,21.80
2022-12-11T08:37:35.437Z,22.27
2022-12-11T08:40:04.170Z,21.47
2022-12-11T08:42:34.339Z,19.60
2022-12-11T08:45:03.012Z,20.03
2022-12-11T08:47:37.685Z,21.03
2022-12-11T08:50:07.034Z,21.10
2022-12-11T08:52:36.147Z,20.90
2022-12-11T08:55:04.977Z,22.80
2022-12-11T08:57:34.884Z,21.83
2022-12-11T09:00:03.707Z,20.33
2022-12-11T09:02:32.262Z,25.03
2022-12-11T09:05:00.816Z,26.60
2022-12-11T09:07:29.365Z,21.50
2022-12-11T09:09:57.878Z,23.17
2022-12-11T09:12:26.625Z,26.33
2022-12-11T09:14:57.069Z,28.53
2022-12-11T09:17:26.008Z,20.30
2022-12-11T09:19:54.798Z,24.47
2022-12-11T09:22:23.442Z,32.83
2022-12-11T09:24:52.106Z,27.47
2022-12-11T09:27:21.448Z,26.00
2022-12-11T09:29:50.377Z,31.13
2022-12-11T09:32:20.537Z,24.10
2022-12-11T09:34:52.090Z,23.70
2022-12-11T09:37:20.774Z,20.37
2022-12-11T09:39:49.690Z,22.23
2022-12-11T09:42:22.606Z,21.17
2022-12-11T09:44:55.622Z,20.37
2022-12-11T09:47:33.313Z,19.70
2022-12-11T09:50:13.154Z,18.60
2022-12-11T09:52:51.426Z,19.03
2022-12-11T09:55:24.335Z,19.80
2022-12-11T09:58:01.248Z,26.43
2022-12-11T10:00:37.696Z,20.57
2022-12-11T10:32:25.125Z,20.53
2022-12-11T10:35:00.360Z,22.33
2022-12-11T10:37:28.844Z,24.17
2022-12-11T10:39:57.157Z,26.50
2022-12-11T10:42:25.626Z,24.67
2022-12-11T10:44:58.909Z,25.40
2022-12-11T10:47:29.041Z,21.97
2022-12-11T10:49:59.790Z,18.90
2022-12-11T10:52:31.651Z,23.10
2022-12-11T10:55:04.138Z,23.83
2022-12-11T10:57:35.776Z,25.23
2022-12-11T11:00:06.576Z,28.63
2022-12-11T11:02:38.621Z,27.10
2022-12-11T11:05:14.061Z,23.50
2022-12-11T11:07:42.977Z,26.57
2022-12-11T11:10:17.651Z,23.40
2022-12-11T11:12:49.321Z,26.50
2022-12-11T11:15:20.510Z,23.83
2022-12-11T11:17:55.850Z,19.47
2022-12-11T11:20:27.132Z,18.97
2022-12-11T11:22:58.066Z,19.60
2022-12-11T11:25:29.761Z,18.53
2022-12-11T11:28:01.129Z,17.77
2022-12-11T11:30:32.273Z,17.93
2022-12-11T11:33:06.578Z,18.67
2022-12-11T11:35:34.933Z,21.53
2022-12-11T11:38:14.333Z,18.10
2022-12-11T11:40:45.666Z,19.47
2022-12-11T11:43:20.034Z,43.13
2022-12-11T11:45:54.980Z,66.00
2022-12-11T11:48:34.241Z,19.60
2022-12-11T11:51:13.952Z,19.70
2022-12-11T11:53:42.657Z,17.13
2022-12-11T11:56:21.259Z,20.20
2022-12-11T11:58:57.544Z,19.27
2022-12-11T12:01:26.207Z,17.60
2022-12-11T12:03:56.666Z,19.43
2022-12-11T12:06:39.617Z,20.70
2022-12-11T12:09:21.838Z,17.33
2022-12-11T12:11:57.679Z,18.27
2022-12-11T12:17:28.910Z,21.50
2022-12-11T12:20:07.346Z,19.07
2022-12-11T12:22:52.740Z,21.00
2022-12-11T12:25:28.252Z,83.70
2022-12-11T12:28:06.052Z,171.40
2022-12-11T12:30:46.142Z,39.23
2022-12-11T12:33:28.667Z,36.03
2022-12-11T12:36:07.390Z,51.83
2022-12-11T12:38:47.222Z,29.50
2022-12-11T12:41:21.569Z,33.57
2022-12-11T12:44:13.685Z,51.03
2022-12-11T12:46:52.433Z,38.33
2022-12-11T12:49:39.675Z,22.23
2022-12-11T12:52:16.213Z,29.03
2022-12-11T12:55:08.927Z,21.30
2022-12-11T12:57:39.645Z,35.10
2022-12-11T13:00:13.090Z,19.17
2022-12-11T13:02:50.828Z,20.53
2022-12-11T13:05:23.550Z,23.83
2022-12-11T13:07:56.389Z,23.50
2022-12-11T13:10:28.722Z,19.40
2022-12-11T13:12:57.797Z,17.33
2022-12-11T13:15:28.888Z,44.47
2022-12-11T13:17:57.456Z,72.03
2022-12-11T13:20:28.165Z,44.27
2022-12-11T13:23:16.978Z,19.80
2022-12-11T13:25:54.126Z,20.90
2022-12-11T13:28:29.026Z,23.40
2022-12-11T13:31:08.449Z,21.93
2022-12-11T13:33:43.895Z,16.53
2022-12-11T13:36:32.599Z,29.17
2022-12-11T13:39:06.874Z,29.27
2022-12-11T13:41:38.153Z,31.57
2022-12-11T13:44:08.576Z,24.70
2022-12-11T13:46:40.416Z,31.23
2022-12-11T13:49:26.615Z,21.00
2022-12-11T13:51:57.798Z,17.03
2022-12-11T13:54:28.558Z,22.30
2022-12-11T13:57:00.523Z,38.00
2022-12-11T13:59:32.783Z,26.53
2022-12-11T14:02:14.051Z,27.17
2022-12-11T14:04:42.913Z,20.13
2022-12-11T14:07:12.829Z,22.77
2022-12-11T14:09:46.463Z,18.17
2022-12-11T14:12:18.551Z,18.57
2022-12-11T14:14:51.269Z,21.03
2022-12-11T14:17:26.052Z,57.47
2022-12-11T14:19:56.092Z,30.43
2022-12-11T14:22:25.952Z,26.80
2022-12-11T14:24:57.821Z,25.87
2022-12-11T14:27:27.361Z,22.53
2022-12-11T14:29:56.064Z,19.03
2022-12-11T14:32:32.326Z,16.27
2022-12-11T14:35:03.126Z,21.30
2022-12-11T14:37:32.338Z,20.33
2022-12-11T14:40:07.228Z,17.73
2022-12-11T14:42:39.971Z,24.80
2022-12-11T14:50:01.105Z,23.43
2022-12-11T14:52:34.272Z,19.57
2022-12-11T14:55:08.801Z,19.30
2022-12-11T14:57:38.030Z,29.27
2022-12-11T15:00:08.170Z,26.50
2022-12-11T15:02:38.189Z,23.63
2022-12-11T15:05:18.071Z,26.40
2022-12-11T15:10:56.657Z,24.53
2022-12-11T15:13:25.639Z,17.37
2022-12-11T15:15:58.531Z,17.60
2022-12-11T15:18:34.087Z,17.60
2022-12-11T15:21:05.288Z,17.60
2022-12-11T15:23:35.818Z,19.93
2022-12-11T15:26:05.784Z,19.53
2022-12-11T15:28:36.765Z,20.40
2022-12-11T15:31:08.362Z,21.07
2022-12-11T15:33:46.835Z,18.53
2022-12-11T15:36:25.421Z,17.43
2022-12-11T15:38:53.974Z,15.40
2022-12-11T15:41:24.832Z,14.07
2022-12-11T15:43:58.704Z,14.63
2022-12-11T15:46:27.736Z,15.10
2022-12-11T15:48:57.564Z,14.43
2022-12-11T15:51:27.581Z,13.43
2022-12-11T15:53:56.050Z,13.10
2022-12-11T15:56:25.978Z,12.30
2022-12-11T15:58:54.314Z,13.00
2022-12-11T16:01:22.731Z,13.17
2022-12-11T16:03:51.447Z,12.13
2022-12-11T16:06:19.805Z,13.50
2022-12-11T16:08:48.220Z,13.27
2022-12-11T16:11:16.681Z,13.20
2022-12-11T16:13:46.890Z,14.27
2022-12-11T16:16:15.256Z,13.13
2022-12-11T16:18:43.546Z,13.00
2022-12-11T16:21:14.463Z,15.90
2022-12-11T16:23:45.217Z,15.30
2022-12-11T16:26:14.464Z,15.20
2022-12-11T16:28:43.146Z,14.27
2022-12-11T16:31:14.284Z,13.80
2022-12-11T16:33:42.922Z,14.63
2022-12-11T16:36:15.126Z,15.47
2022-12-11T16:38:49.911Z,15.37
2022-12-11T16:41:22.899Z,17.63
2022-12-11T16:43:51.499Z,18.77
2022-12-11T16:46:22.180Z,17.60
2022-12-11T16:48:50.895Z,19.53
2022-12-11T16:51:19.202Z,24.17
2022-12-11T16:53:47.630Z,24.00
2022-12-11T16:56:15.900Z,21.87
2022-12-11T16:58:44.176Z,21.57
2022-12-11T17:01:13.900Z,20.70
2022-12-11T17:03:44.611Z,21.67
2022-12-11T17:06:15.594Z,20.27
2022-12-11T17:08:44.786Z,20.27
2022-12-11T17:11:15.489Z,22.10
2022-12-11T17:13:44.547Z,22.37
2022-12-11T17:16:15.066Z,24.43
2022-12-11T17:18:44.862Z,22.70
2022-12-11T17:21:16.419Z,20.85
2022-12-11T17:28:17.390Z,22.00
2022-12-11T17:30:48.684Z,19.10
2022-12-11T17:37:49.386Z,37.63
2022-12-11T17:40:18.869Z,32.50
2022-12-11T17:42:47.552Z,29.73
2022-12-11T17:45:15.892Z,27.37
2022-12-11T17:47:44.333Z,26.07
2022-12-11T17:50:12.576Z,20.37
2022-12-11T17:52:44.172Z,20.03
2022-12-11T17:55:14.554Z,19.00
2022-12-11T17:57:43.093Z,20.63
2022-12-11T18:00:12.544Z,23.70
2022-12-11T18:02:40.867Z,29.17
2022-12-11T18:05:09.717Z,26.87
2022-12-11T18:07:39.080Z,23.03
2022-12-11T18:10:07.888Z,22.20
2022-12-11T18:12:37.682Z,21.70
2022-12-11T18:15:07.183Z,24.60
2022-12-11T18:17:35.673Z,21.37
2022-12-11T18:20:04.722Z,19.27
2022-12-11T18:22:33.158Z,19.20
2022-12-11T18:25:06.420Z,24.80
2022-12-11T18:27:39.560Z,19.47
2022-12-11T18:30:09.065Z,21.63
2022-12-11T18:32:37.490Z,21.40
2022-12-11T18:35:06.640Z,19.53
2022-12-11T18:37:35.220Z,18.77
2022-12-11T18:40:03.727Z,19.30
2022-12-11T18:42:33.718Z,19.47
2022-12-11T18:45:04.160Z,20.40
2022-12-11T18:47:32.551Z,22.47
2022-12-11T18:50:07.221Z,24.13
2022-12-11T18:52:36.488Z,21.80
2022-12-11T18:55:05.314Z,20.90
2022-12-11T18:57:33.646Z,20.10
2022-12-11T19:00:07.444Z,22.60
2022-12-11T19:02:36.390Z,51.43
2022-12-11T19:05:05.321Z,59.83
2022-12-11T19:07:33.669Z,40.13
2022-12-11T19:10:02.073Z,42.50
2022-12-11T19:12:30.486Z,37.83
2022-12-11T19:14:58.850Z,30.67
2022-12-11T19:17:28.640Z,26.90
2022-12-11T19:19:57.162Z,25.73
2022-12-11T19:22:25.710Z,26.87
2022-12-11T19:24:54.074Z,25.97
2022-12-11T19:27:22.438Z,23.83
2022-12-11T19:29:50.836Z,22.27
2022-12-11T19:32:19.207Z,22.27
2022-12-11T19:34:49.050Z,22.27
2022-12-11T19:37:17.460Z,20.30
2022-12-11T19:39:45.734Z,20.30
2022-12-11T19:42:14.084Z,22.20
2022-12-11T19:44:43.058Z,25.13
2022-12-11T19:47:12.215Z,47.27
2022-12-11T19:49:40.629Z,34.93
2022-12-11T19:52:10.297Z,36.27
2022-12-11T19:54:38.618Z,27.27
2022-12-11T19:57:06.903Z,24.53
2022-12-11T19:59:35.294Z,23.57
2022-12-11T20:02:03.665Z,21.23
2022-12-11T20:04:32.069Z,21.30
2022-12-11T20:07:00.358Z,22.57
2022-12-11T20:09:33.272Z,22.57
2022-12-11T20:12:03.146Z,22.23
2022-12-11T20:14:32.426Z,21.40
2022-12-11T20:17:12.085Z,20.13
2022-12-11T20:19:41.850Z,21.87
2022-12-11T20:22:10.697Z,20.60
2022-12-11T20:24:40.554Z,20.30
2022-12-11T20:27:12.305Z,18.23
2022-12-11T20:29:41.018Z,19.10
2022-12-11T20:32:12.273Z,20.30
2022-12-11T20:34:41.286Z,19.77
2022-12-11T20:37:09.725Z,20.53
2022-12-11T20:39:38.266Z,19.80
2022-12-11T20:42:10.367Z,19.73
2022-12-11T20:44:41.615Z,18.47
2022-12-11T20:47:12.783Z,15.47
2022-12-11T20:49:41.103Z,13.77
2022-12-11T20:52:09.772Z,14.13
2022-12-11T20:54:38.031Z,13.20
2022-12-11T20:57:07.673Z,12.30
2022-12-11T20:59:36.055Z,12.60
2022-12-11T21:02:05.038Z,11.93
2022-12-11T21:04:33.441Z,11.27
2022-12-11T21:07:01.713Z,12.73
2022-12-11T21:09:30.088Z,13.53
2022-12-11T21:12:00.693Z,10.83
2022-12-11T21:14:31.071Z,10.70
2022-12-11T21:16:59.529Z,11.37
2022-12-11T21:19:27.947Z,11.57
2022-12-11T21:21:56.293Z,11.10
2022-12-11T21:24:27.418Z,10.23
2022-12-11T21:26:56.847Z,10.13
2022-12-11T21:29:27.273Z,10.53
2022-12-11T21:31:57.526Z,10.07
2022-12-11T21:34:26.072Z,11.20
2022-12-11T21:36:56.925Z,10.33
2022-12-11T21:39:26.468Z,10.90
2022-12-11T21:41:54.891Z,11.07
2022-12-11T21:47:12.962Z,12.33
2022-12-11T21:49:41.337Z,11.30
2022-12-11T21:52:09.724Z,10.90
2022-12-11T21:54:39.625Z,11.03
2022-12-11T21:57:08.109Z,10.53
2022-12-11T21:59:36.690Z,11.80
2022-12-11T22:02:05.154Z,14.20
2022-12-11T22:04:34.826Z,11.17
2022-12-11T22:07:03.135Z,11.30
2022-12-11T22:09:31.444Z,11.93
2022-12-11T22:12:00.043Z,11.47
2022-12-11T22:14:30.774Z,11.30
2022-12-11T22:17:00.796Z,10.90
2022-12-11T22:19:32.713Z,10.80
2022-12-11T22:22:02.718Z,11.43
2022-12-11T22:24:31.144Z,11.43
2022-12-11T22:26:59.550Z,10.70
2022-12-11T22:29:27.897Z,10.80
2022-12-11T22:31:56.342Z,11.07
2022-12-11T22:34:24.715Z,10.63
2022-12-11T22:36:53.033Z,11.10
2022-12-11T22:39:22.775Z,10.93
2022-12-11T22:41:51.072Z,10.77
2022-12-11T22:44:21.636Z,11.43
2022-12-11T22:46:50.835Z,10.97
2022-12-11T22:49:19.550Z,11.40
2022-12-11T22:51:48.155Z,11.00
2022-12-11T22:54:16.655Z,11.90
2022-12-11T22:56:46.334Z,12.17
2022-12-11T22:59:14.872Z,10.73
2022-12-11T23:01:43.250Z,11.27
2022-12-11T23:04:11.718Z,11.20
2022-12-11T23:06:40.311Z,10.50
2022-12-11T23:09:08.942Z,10.50
2022-12-11T23:11:38.942Z,11.40
2022-12-11T23:14:12.282Z,11.13
2022-12-11T23:16:40.686Z,10.90
2022-12-11T23:19:09.022Z,11.53
2022-12-11T23:21:37.820Z,10.43
2022-12-11T23:24:07.018Z,10.20
2022-12-11T23:26:35.380Z,11.10
2022-12-11T23:29:06.383Z,11.00
2022-12-11T23:31:36.156Z,10.93
2022-12-11T23:34:04.536Z,11.20
2022-12-11T23:36:34.770Z,11.30
2022-12-11T23:39:03.150Z,11.13
2022-12-11T23:41:31.441Z,10.57
2022-12-11T23:44:00.643Z,11.00
2022-12-11T23:46:29.066Z,10.67
2022-12-11T23:48:58.776Z,11.10
2022-12-11T23:51:27.397Z,10.90
2022-12-11T23:53:56.059Z,10.73
2022-12-11T23:56:27.587Z,11.00
2022-12-11T23:58:56.254Z,11.30
